This is the latest recevied weather packets stored in our database for station/object BMCB-34. If no packets are shown the sender has not sent any weather packets the latest 10 day(s).
| Time | Temp. | Humidity | Pressure | Rain* | Wind** | Luminosity | Snow |
|---|---|---|---|---|---|---|---|
| 1777387216 | 22.22° C | 35% | 1010.2 hPa | 0 mm | - | 616 W/m² | - |
| 1777384817 | 21.67° C | 36% | 1010.4 hPa | 0 mm | - | 574 W/m² | - |
| 1777384220 | 21.67° C | 36% | 1010.4 hPa | 0 mm | - | 574 W/m² | - |
| 1777383622 | 22.22° C | 35% | 1010.5 hPa | 0 mm | - | 448 W/m² | - |
| 1777382418 | 21.67° C | 35% | 1010.7 hPa | 0 mm | - | 522 W/m² | - |
| 1777379423 | 21.67° C | 36% | 1010.7 hPa | 0 mm | - | 506 W/m² | - |
| 1777377024 | 20.56° C | 38% | 1010.9 hPa | 0 mm | - | 674 W/m² | - |
| 1777376423 | 20.56° C | 38% | 1010.9 hPa | 0 mm | - | 674 W/m² | - |
| 1777372821 | 18.89° C | 41% | 1011.3 hPa | 0 mm | - | 616 W/m² | - |
| 1777371624 | 18.33° C | 43% | 1011.4 hPa | 0 mm | - | 580 W/m² | - |
| 1777369222 | 17.22° C | 47% | 1011.6 hPa | 0 mm | - | 528 W/m² | - |
| 1777364423 | 14.44° C | 52% | 1011.8 hPa | 0 mm | - | 362 W/m² | - |
| 1777363224 | 13.89° C | 53% | 1011.8 hPa | 0 mm | - | 316 W/m² | - |
| 1777362623 | 13.89° C | 54% | 1011.7 hPa | 0 mm | - | 290 W/m² | - |
| 1777362024 | 13.89° C | 54% | 1011.7 hPa | 0 mm | - | 290 W/m² | - |
| 1777361424 | 12.78° C | 55% | 1011.8 hPa | 0 mm | - | 248 W/m² | - |
| 1777356624 | 10.56° C | 59% | 1012.1 hPa | 0 mm | - | 74 W/m² | - |
| 1777356026 | 10.56° C | 59% | 1012.1 hPa | 0 mm | - | 74 W/m² | - |
| 1777356024 | 10.56° C | 60% | 1012 hPa | 0 mm | - | 56 W/m² | - |
| 1777355422 | 10.56° C | 60% | 1012 hPa | 0 mm | - | 40 W/m² | - |
| 1777354224 | 10° C | 60% | 1012.1 hPa | 0 mm | - | 20 W/m² | - |
| 1777351223 | 9.44° C | 66% | 1011.8 hPa | 0 mm | - | 0 W/m² | - |
| 1777349424 | 10° C | 62% | 1011.8 hPa | 0 mm | - | 0 W/m² | - |
| 1777348823 | 10° C | 62% | 1011.9 hPa | 0 mm | - | 0 W/m² | - |
| 1777347039 | 10.56° C | 61% | 1012.1 hPa | 0 mm | - | 0 W/m² | - |
* Rain latest hour (hover to see other rain measurements)
** Current wind speed in m/s (hover to see current wind gust speed)